createdAt,value
2018-09-26T00:01:41.569Z,2.10
2018-09-26T00:04:18.838Z,2.30
2018-09-26T00:06:51.204Z,2.07
2018-09-26T00:09:23.223Z,2.27
2018-09-26T00:11:55.678Z,2.03
2018-09-26T00:14:27.637Z,2.10
2018-09-26T00:16:59.567Z,2.20
2018-09-26T00:19:31.876Z,1.80
2018-09-26T00:22:03.943Z,2.37
2018-09-26T00:24:36.335Z,2.13
2018-09-26T00:27:08.881Z,2.20
2018-09-26T00:29:40.898Z,2.10
2018-09-26T00:32:14.118Z,2.10
2018-09-26T00:34:46.070Z,2.47
2018-09-26T00:37:17.891Z,2.13
2018-09-26T00:39:50.664Z,2.10
2018-09-26T00:42:23.612Z,2.23
2018-09-26T00:44:56.678Z,2.40
2018-09-26T00:47:29.281Z,2.33
2018-09-26T00:50:01.471Z,2.00
2018-09-26T00:52:34.464Z,2.40
2018-09-26T00:55:06.701Z,2.70
2018-09-26T00:57:39.498Z,2.27
2018-09-26T01:00:12.827Z,2.30
2018-09-26T01:02:45.530Z,2.13
2018-09-26T01:05:18.621Z,2.47
2018-09-26T01:07:50.927Z,2.37
2018-09-26T01:10:22.928Z,2.17
2018-09-26T01:15:45.524Z,2.70
2018-09-26T01:18:18.150Z,2.20
2018-09-26T01:20:50.882Z,2.40
2018-09-26T01:23:23.276Z,2.60
2018-09-26T01:25:55.780Z,2.60
2018-09-26T01:28:28.461Z,2.27
2018-09-26T01:31:01.278Z,2.70
2018-09-26T01:33:34.157Z,2.80
2018-09-26T01:36:06.649Z,2.10
2018-09-26T01:38:38.536Z,2.30
2018-09-26T01:41:12.059Z,2.60
2018-09-26T01:43:43.911Z,2.50
2018-09-26T01:46:16.346Z,2.37
2018-09-26T01:48:48.208Z,2.30
2018-09-26T01:51:20.338Z,2.87
2018-09-26T01:53:53.364Z,2.80
2018-09-26T01:56:25.341Z,2.20
2018-09-26T01:58:57.145Z,2.80
2018-09-26T02:01:28.959Z,2.77
2018-09-26T02:04:01.009Z,2.97
2018-09-26T02:06:33.509Z,2.50
2018-09-26T02:09:07.018Z,2.90
2018-09-26T02:11:39.908Z,2.90
2018-09-26T02:14:11.986Z,2.77
2018-09-26T02:16:44.156Z,2.50
2018-09-26T02:19:16.501Z,3.33
2018-09-26T02:21:52.103Z,3.00
2018-09-26T02:24:23.809Z,2.87
2018-09-26T02:26:58.331Z,2.20
2018-09-26T02:32:06.848Z,2.60
2018-09-26T02:34:40.411Z,2.40
2018-09-26T02:37:13.018Z,2.80
2018-09-26T02:39:46.106Z,2.90
2018-09-26T02:42:18.033Z,3.33
2018-09-26T02:44:50.928Z,2.77
2018-09-26T02:47:22.910Z,3.10
2018-09-26T02:49:55.132Z,2.50
2018-09-26T02:52:27.141Z,3.20
2018-09-26T02:54:58.974Z,2.97
2018-09-26T02:57:30.970Z,3.27
2018-09-26T03:00:02.835Z,3.33
2018-09-26T03:02:34.787Z,3.47
2018-09-26T03:05:06.953Z,3.07
2018-09-26T03:07:38.806Z,3.07
2018-09-26T03:10:11.346Z,3.13
2018-09-26T03:12:43.335Z,3.17
2018-09-26T03:15:16.272Z,2.77
2018-09-26T03:17:48.257Z,3.23
2018-09-26T03:20:20.143Z,2.93
2018-09-26T03:22:52.673Z,2.70
2018-09-26T03:25:24.398Z,3.27
2018-09-26T03:27:56.636Z,2.90
2018-09-26T03:30:28.630Z,3.73
2018-09-26T03:33:01.113Z,3.23
2018-09-26T03:35:33.026Z,3.80
2018-09-26T03:38:05.182Z,3.27
2018-09-26T03:40:37.873Z,3.73
2018-09-26T03:43:10.846Z,3.23
2018-09-26T03:45:43.105Z,3.10
2018-09-26T03:48:15.379Z,3.50
2018-09-26T03:50:47.421Z,3.20
2018-09-26T03:53:19.452Z,4.07
2018-09-26T03:55:51.794Z,4.23
2018-09-26T03:58:23.881Z,3.80
2018-09-26T04:00:55.580Z,3.53
2018-09-26T04:03:27.806Z,3.33
2018-09-26T04:06:01.062Z,3.53
2018-09-26T04:08:33.647Z,3.83
2018-09-26T04:11:05.894Z,4.03
2018-09-26T04:13:38.134Z,4.03
2018-09-26T04:16:10.947Z,3.60
2018-09-26T04:18:43.342Z,4.17
2018-09-26T04:21:15.377Z,3.93
2018-09-26T04:23:47.745Z,4.30
2018-09-26T04:26:20.250Z,4.30
2018-09-26T04:28:52.646Z,4.60
2018-09-26T04:31:24.993Z,3.53
2018-09-26T04:33:57.444Z,4.00
2018-09-26T04:36:29.704Z,4.40
2018-09-26T04:39:01.687Z,4.17
2018-09-26T04:41:34.024Z,3.70
2018-09-26T04:44:06.465Z,5.03
2018-09-26T04:46:38.769Z,3.83
2018-09-26T04:49:10.792Z,4.60
2018-09-26T04:51:43.121Z,4.37
2018-09-26T04:54:15.133Z,4.23
2018-09-26T04:56:47.647Z,4.00
2018-09-26T04:59:19.890Z,4.50
2018-09-26T05:01:51.799Z,4.70
2018-09-26T05:04:24.379Z,4.47
2018-09-26T05:06:57.359Z,4.30
2018-09-26T05:09:29.556Z,4.93
2018-09-26T05:12:01.786Z,4.50
2018-09-26T05:14:33.896Z,4.13
2018-09-26T05:17:06.456Z,5.17
2018-09-26T05:19:38.615Z,4.60
2018-09-26T05:22:11.394Z,4.57
2018-09-26T05:24:43.544Z,4.40
2018-09-26T05:27:15.501Z,5.10
2018-09-26T05:29:47.457Z,5.23
2018-09-26T05:32:19.619Z,5.10
2018-09-26T05:34:51.821Z,5.27
2018-09-26T05:37:23.967Z,5.10
2018-09-26T05:39:56.208Z,5.20
2018-09-26T05:42:28.489Z,5.10
2018-09-26T05:45:00.884Z,5.33
2018-09-26T05:47:33.136Z,5.90
2018-09-26T05:50:05.651Z,5.90
2018-09-26T05:52:37.979Z,5.67
2018-09-26T05:55:10.195Z,5.90
2018-09-26T05:57:42.501Z,6.63
2018-09-26T06:00:14.803Z,5.53
2018-09-26T06:02:46.955Z,5.70
2018-09-26T06:05:20.170Z,5.80
2018-09-26T06:07:52.562Z,7.23
2018-09-26T06:10:24.660Z,6.50
2018-09-26T06:12:57.765Z,6.70
2018-09-26T06:15:29.573Z,6.97
2018-09-26T06:18:01.843Z,6.57
2018-09-26T06:20:34.061Z,7.03
2018-09-26T06:23:06.117Z,6.70
2018-09-26T06:25:38.383Z,6.77
2018-09-26T06:28:10.393Z,6.27
2018-09-26T06:30:42.570Z,7.70
2018-09-26T06:33:14.479Z,6.63
2018-09-26T06:35:47.146Z,7.27
2018-09-26T06:38:19.193Z,7.30
2018-09-26T06:40:51.422Z,7.40
2018-09-26T06:43:23.899Z,7.00
2018-09-26T06:45:56.085Z,7.27
2018-09-26T06:48:27.874Z,7.40
2018-09-26T06:51:00.237Z,6.80
2018-09-26T06:53:33.221Z,8.03
2018-09-26T06:56:05.924Z,7.10
2018-09-26T06:58:38.088Z,6.17
2018-09-26T07:01:10.286Z,7.30
2018-09-26T07:03:42.462Z,7.03
2018-09-26T07:06:14.830Z,7.90
2018-09-26T07:08:47.110Z,8.57
2018-09-26T07:11:19.590Z,6.93
2018-09-26T07:13:51.699Z,7.30
2018-09-26T07:16:23.943Z,7.70
2018-09-26T07:18:56.496Z,7.73
2018-09-26T07:21:28.987Z,7.17
2018-09-26T07:24:01.280Z,7.60
2018-09-26T07:26:33.710Z,7.80
2018-09-26T07:29:05.834Z,7.67
2018-09-26T07:31:38.089Z,7.13
2018-09-26T07:34:10.978Z,6.83
2018-09-26T07:36:43.257Z,6.57
2018-09-26T07:39:15.711Z,6.83
2018-09-26T07:41:47.983Z,7.13
2018-09-26T07:44:20.273Z,7.77
2018-09-26T07:46:52.945Z,6.93
2018-09-26T07:49:25.023Z,7.40
2018-09-26T07:51:57.378Z,7.47
2018-09-26T07:54:29.374Z,6.90
2018-09-26T07:57:01.726Z,7.30
2018-09-26T07:59:33.696Z,7.10
2018-09-26T08:02:05.896Z,7.33
2018-09-26T08:04:38.006Z,6.33
2018-09-26T08:07:10.023Z,7.93
2018-09-26T08:09:42.346Z,7.30
2018-09-26T08:12:14.611Z,6.90
2018-09-26T08:14:46.393Z,6.60
2018-09-26T08:17:18.788Z,6.73
2018-09-26T08:19:51.146Z,6.80
2018-09-26T08:22:23.718Z,7.20
2018-09-26T08:24:56.162Z,6.97
2018-09-26T08:27:28.475Z,7.50
2018-09-26T08:30:00.887Z,7.23
2018-09-26T08:32:33.269Z,7.13
2018-09-26T08:35:05.049Z,6.80
2018-09-26T08:37:37.090Z,8.10
2018-09-26T08:40:09.350Z,7.17
2018-09-26T08:42:41.650Z,7.13
2018-09-26T08:45:13.789Z,7.47
2018-09-26T08:47:46.074Z,7.57
2018-09-26T08:50:18.443Z,8.90
2018-09-26T08:52:50.470Z,8.80
2018-09-26T08:55:22.813Z,8.33
2018-09-26T08:57:55.158Z,7.80
2018-09-26T09:00:32.042Z,7.63
2018-09-26T09:03:04.662Z,8.17
2018-09-26T09:05:37.114Z,7.43
2018-09-26T09:08:09.362Z,7.13
2018-09-26T09:10:41.514Z,7.40
2018-09-26T09:13:13.887Z,7.87
2018-09-26T09:15:46.059Z,7.60
2018-09-26T09:18:19.126Z,8.00
2018-09-26T09:20:51.430Z,8.03
2018-09-26T09:23:23.627Z,7.67
2018-09-26T09:25:56.591Z,7.27
2018-09-26T09:28:29.158Z,8.00
2018-09-26T09:31:01.510Z,8.27
2018-09-26T09:33:33.539Z,7.90
2018-09-26T09:36:05.621Z,8.30
2018-09-26T09:38:37.847Z,8.07
2018-09-26T09:41:10.169Z,8.37
2018-09-26T09:43:42.913Z,8.00
2018-09-26T09:46:15.071Z,9.27
2018-09-26T09:48:47.401Z,8.60
2018-09-26T09:51:19.548Z,7.77
2018-09-26T09:53:51.702Z,8.30
2018-09-26T09:56:24.095Z,8.80
2018-09-26T09:58:57.012Z,9.10
2018-09-26T10:01:30.357Z,9.20
2018-09-26T10:04:02.361Z,8.87
2018-09-26T10:06:34.928Z,9.20
2018-09-26T10:09:08.936Z,9.20
2018-09-26T10:11:41.405Z,10.20
2018-09-26T10:14:13.844Z,9.07
2018-09-26T10:16:46.075Z,8.80
2018-09-26T10:19:18.422Z,9.93
2018-09-26T10:21:51.052Z,9.13
2018-09-26T10:24:23.448Z,9.53
2018-09-26T10:26:55.573Z,9.47
2018-09-26T10:29:27.900Z,9.23
2018-09-26T10:32:00.542Z,9.30
2018-09-26T10:34:32.673Z,9.17
2018-09-26T10:37:05.154Z,9.37
2018-09-26T10:39:37.521Z,8.90
2018-09-26T10:42:09.663Z,8.33
2018-09-26T10:44:41.833Z,9.47
2018-09-26T10:47:14.187Z,9.43
2018-09-26T10:49:46.394Z,9.27
2018-09-26T10:52:18.930Z,8.80
2018-09-26T10:54:51.296Z,8.33
2018-09-26T10:57:23.526Z,10.40
2018-09-26T10:59:55.866Z,8.77
2018-09-26T11:02:28.081Z,9.80
2018-09-26T11:05:00.593Z,9.63
2018-09-26T11:07:32.987Z,10.57
2018-09-26T11:10:05.656Z,9.07
2018-09-26T11:12:38.095Z,9.07
2018-09-26T11:15:10.450Z,10.47
2018-09-26T11:17:42.931Z,9.50
2018-09-26T11:20:15.109Z,9.30
2018-09-26T11:22:47.241Z,8.27
2018-09-26T11:25:19.667Z,9.37
2018-09-26T11:27:52.260Z,10.20
2018-09-26T11:30:24.615Z,10.33
2018-09-26T11:32:56.828Z,11.90
2018-09-26T11:35:29.503Z,10.60
2018-09-26T11:38:02.183Z,9.97
2018-09-26T11:40:34.500Z,10.90
2018-09-26T11:43:06.520Z,11.93
2018-09-26T11:45:38.914Z,10.93
2018-09-26T11:48:10.913Z,12.30
2018-09-26T11:50:43.090Z,12.00
2018-09-26T11:53:15.621Z,10.60
2018-09-26T11:55:48.254Z,10.20
2018-09-26T11:58:21.493Z,11.70
2018-09-26T12:00:53.715Z,10.70
2018-09-26T12:03:25.857Z,11.63
2018-09-26T12:05:58.460Z,12.33
2018-09-26T12:08:30.830Z,12.10
2018-09-26T12:11:03.221Z,13.10
2018-09-26T12:13:35.869Z,12.87
2018-09-26T12:16:08.230Z,12.23
2018-09-26T12:18:40.497Z,12.17
2018-09-26T12:21:13.324Z,11.17
2018-09-26T12:23:45.950Z,12.17
2018-09-26T12:26:18.192Z,12.50
2018-09-26T12:28:50.586Z,12.50
2018-09-26T12:31:23.042Z,12.20
2018-09-26T12:33:54.998Z,13.43
2018-09-26T12:36:27.453Z,12.73
2018-09-26T12:38:59.876Z,13.80
2018-09-26T12:41:32.083Z,12.83
2018-09-26T12:44:04.869Z,11.97
2018-09-26T12:46:37.030Z,11.13
2018-09-26T12:49:09.530Z,12.83
2018-09-26T12:51:41.706Z,12.13
2018-09-26T12:54:13.654Z,12.13
2018-09-26T12:56:45.653Z,13.10
2018-09-26T12:59:18.212Z,12.67
2018-09-26T13:01:50.581Z,12.70
2018-09-26T13:04:22.805Z,12.40
2018-09-26T13:06:55.252Z,12.87
2018-09-26T13:09:28.141Z,12.43
2018-09-26T13:12:00.784Z,13.27
2018-09-26T13:14:32.950Z,14.70
2018-09-26T13:17:05.358Z,14.13
2018-09-26T13:19:37.697Z,13.70
2018-09-26T13:22:10.141Z,13.63
2018-09-26T13:24:42.645Z,13.00
2018-09-26T13:27:14.612Z,13.40
2018-09-26T13:29:46.956Z,12.40
2018-09-26T13:32:19.341Z,13.63
2018-09-26T13:34:51.508Z,17.40
2018-09-26T13:37:23.988Z,16.07
2018-09-26T13:39:56.352Z,15.47
2018-09-26T13:42:28.506Z,16.20
2018-09-26T13:45:00.756Z,14.63
2018-09-26T13:47:33.308Z,19.10
2018-09-26T13:50:05.682Z,20.50
2018-09-26T13:52:38.242Z,20.73
2018-09-26T13:55:10.587Z,20.40
2018-09-26T13:57:43.209Z,21.30
2018-09-26T14:00:18.293Z,24.27
2018-09-26T14:02:51.344Z,21.87
2018-09-26T14:05:23.542Z,27.97
2018-09-26T14:07:55.845Z,24.77
2018-09-26T14:10:28.046Z,21.90
2018-09-26T14:13:00.383Z,21.67
2018-09-26T14:15:32.782Z,22.33
2018-09-26T14:18:05.057Z,20.80
2018-09-26T14:20:37.335Z,20.00
2018-09-26T14:23:10.209Z,22.40
2018-09-26T14:25:42.320Z,22.87
2018-09-26T14:28:14.928Z,21.30
2018-09-26T14:30:47.380Z,23.83
2018-09-26T14:33:19.719Z,19.87
2018-09-26T14:35:51.828Z,20.53
2018-09-26T14:38:24.306Z,24.10
2018-09-26T14:40:56.425Z,20.73
2018-09-26T14:43:28.206Z,22.40
2018-09-26T14:46:00.805Z,21.20
2018-09-26T14:48:33.045Z,22.93
2018-09-26T14:51:05.689Z,23.27
2018-09-26T14:53:37.839Z,24.57
2018-09-26T14:56:10.178Z,23.43
2018-09-26T14:58:42.515Z,21.03
2018-09-26T15:01:14.647Z,21.93
2018-09-26T15:03:46.796Z,21.10
2018-09-26T15:06:19.191Z,16.20
2018-09-26T15:08:51.831Z,15.17
2018-09-26T15:11:24.738Z,16.67
2018-09-26T15:13:57.321Z,14.70
2018-09-26T15:16:29.687Z,13.80
2018-09-26T15:19:01.886Z,15.70
2018-09-26T15:21:34.386Z,13.90
2018-09-26T15:24:06.892Z,13.90
2018-09-26T15:26:39.583Z,13.20
2018-09-26T15:29:11.992Z,12.80
2018-09-26T15:31:44.541Z,12.00
2018-09-26T15:34:17.373Z,11.83
2018-09-26T15:36:50.589Z,11.70
2018-09-26T15:39:22.839Z,11.40
2018-09-26T15:41:55.187Z,11.37
2018-09-26T15:44:27.700Z,11.53
2018-09-26T15:46:59.966Z,11.40
2018-09-26T15:49:32.154Z,11.63
2018-09-26T15:52:04.334Z,10.23
2018-09-26T15:54:37.070Z,10.90
2018-09-26T15:57:09.798Z,9.80
2018-09-26T15:59:42.253Z,11.03
2018-09-26T16:02:14.649Z,10.60
2018-09-26T16:04:46.803Z,10.07
2018-09-26T16:07:19.146Z,9.97
2018-09-26T16:09:51.778Z,9.90
2018-09-26T16:12:24.142Z,9.33
2018-09-26T16:14:57.219Z,9.50
2018-09-26T16:17:29.734Z,7.77
2018-09-26T16:20:01.975Z,9.33
2018-09-26T16:22:34.590Z,8.20
2018-09-26T16:25:06.994Z,9.10
2018-09-26T16:27:39.356Z,8.27
2018-09-26T16:30:12.249Z,7.80
2018-09-26T16:32:44.859Z,8.93
2018-09-26T16:35:17.722Z,8.50
2018-09-26T16:37:50.265Z,8.57
2018-09-26T16:40:22.631Z,8.90
2018-09-26T16:42:54.814Z,8.13
2018-09-26T16:45:27.339Z,8.97
2018-09-26T16:47:59.436Z,8.27
2018-09-26T16:50:31.603Z,7.83
2018-09-26T16:53:03.765Z,8.10
2018-09-26T16:55:36.102Z,8.20
2018-09-26T16:58:08.317Z,8.33
2018-09-26T17:00:40.579Z,8.10
2018-09-26T17:03:12.682Z,8.50
2018-09-26T17:05:44.855Z,7.77
2018-09-26T17:08:17.124Z,7.57
2018-09-26T17:10:49.295Z,8.00
2018-09-26T17:13:21.380Z,6.70
2018-09-26T17:15:53.804Z,7.93
2018-09-26T17:18:26.063Z,6.83
2018-09-26T17:20:58.321Z,7.73
2018-09-26T17:23:30.656Z,7.13
2018-09-26T17:26:02.793Z,6.47
2018-09-26T17:28:35.009Z,7.57
2018-09-26T17:31:07.624Z,6.70
2018-09-26T17:33:39.959Z,6.10
2018-09-26T17:36:12.346Z,6.60
2018-09-26T17:38:44.764Z,6.90
2018-09-26T17:41:17.301Z,7.17
2018-09-26T17:43:49.613Z,5.70
2018-09-26T17:46:21.724Z,6.53
2018-09-26T17:48:54.637Z,5.30
2018-09-26T17:51:26.903Z,6.00
2018-09-26T17:53:59.502Z,5.87
2018-09-26T17:56:31.675Z,6.00
2018-09-26T17:59:03.974Z,5.80
2018-09-26T18:01:36.355Z,5.30
2018-09-26T18:04:08.818Z,4.40
2018-09-26T18:06:41.490Z,5.40
2018-09-26T18:09:14.500Z,5.10
2018-09-26T18:11:46.793Z,4.83
2018-09-26T18:14:19.708Z,5.90
2018-09-26T18:16:51.955Z,4.97
2018-09-26T18:19:24.108Z,5.23
2018-09-26T18:21:56.451Z,4.30
2018-09-26T18:24:28.647Z,5.30
2018-09-26T18:27:01.191Z,4.70
2018-09-26T18:29:33.802Z,5.37
2018-09-26T18:32:06.453Z,5.20
2018-09-26T18:34:39.272Z,4.60
2018-09-26T18:37:11.697Z,4.53
2018-09-26T18:39:44.483Z,4.53
2018-09-26T18:42:16.635Z,4.87
2018-09-26T18:44:49.023Z,4.13
2018-09-26T18:47:21.416Z,4.10
2018-09-26T18:49:53.795Z,4.20
2018-09-26T18:52:27.259Z,4.53
2018-09-26T18:54:59.523Z,4.40
2018-09-26T18:57:31.732Z,4.43
2018-09-26T19:00:03.908Z,4.93
2018-09-26T19:02:36.266Z,4.20
2018-09-26T19:05:08.492Z,4.70
2018-09-26T19:07:40.806Z,4.80
2018-09-26T19:10:12.964Z,5.90
2018-09-26T19:12:45.066Z,5.20
2018-09-26T19:15:17.223Z,4.70
2018-09-26T19:17:49.554Z,4.77
2018-09-26T19:20:21.950Z,3.90
2018-09-26T19:22:54.130Z,3.97
2018-09-26T19:25:26.282Z,4.67
2018-09-26T19:27:58.678Z,3.67
2018-09-26T19:30:31.389Z,3.70
2018-09-26T19:33:03.865Z,3.67
2018-09-26T19:35:36.586Z,3.40
2018-09-26T19:38:10.096Z,3.60
2018-09-26T19:40:42.353Z,4.37
2018-09-26T19:43:14.923Z,4.10
2018-09-26T19:45:47.065Z,4.70
2018-09-26T19:48:19.684Z,3.50
2018-09-26T19:50:52.013Z,4.23
2018-09-26T19:53:24.196Z,4.27
2018-09-26T19:55:56.659Z,3.47
2018-09-26T20:01:09.042Z,3.47
2018-09-26T20:03:41.426Z,3.77
2018-09-26T20:06:13.611Z,3.07
2018-09-26T20:08:45.916Z,3.50
2018-09-26T20:11:18.404Z,3.73
2018-09-26T20:13:50.536Z,4.33
2018-09-26T20:16:23.785Z,3.73
2018-09-26T20:18:56.768Z,3.40
2018-09-26T20:21:28.665Z,3.33
2018-09-26T20:24:01.115Z,3.17
2018-09-26T20:26:33.198Z,3.53
2018-09-26T20:29:06.423Z,3.33
2018-09-26T20:31:39.110Z,3.17
2018-09-26T20:34:11.483Z,3.10
2018-09-26T20:36:43.630Z,3.83
2018-09-26T20:39:15.982Z,3.63
2018-09-26T20:41:48.543Z,3.53
2018-09-26T20:44:20.749Z,4.20
2018-09-26T20:46:52.679Z,3.77
2018-09-26T20:49:25.273Z,3.70
2018-09-26T20:51:57.577Z,3.50
2018-09-26T20:54:30.226Z,3.37
2018-09-26T20:57:02.508Z,3.37
2018-09-26T20:59:34.674Z,3.50
2018-09-26T21:02:06.762Z,3.57
2018-09-26T21:04:39.457Z,3.27
2018-09-26T21:07:12.491Z,3.43
2018-09-26T21:09:44.890Z,2.93
2018-09-26T21:12:17.518Z,3.10
2018-09-26T21:14:50.326Z,3.47
2018-09-26T21:17:22.688Z,2.93
2018-09-26T21:19:55.344Z,2.80
2018-09-26T21:22:27.582Z,2.90
2018-09-26T21:25:00.362Z,2.70
2018-09-26T21:27:32.795Z,3.20
2018-09-26T21:30:05.364Z,3.10
2018-09-26T21:32:38.356Z,3.30
2018-09-26T21:35:10.878Z,3.20
2018-09-26T21:37:42.901Z,3.20
2018-09-26T21:40:15.305Z,2.90
2018-09-26T21:42:47.659Z,2.97
2018-09-26T21:45:20.318Z,2.73
2018-09-26T21:47:52.676Z,2.80
2018-09-26T21:50:24.987Z,2.77
2018-09-26T21:52:57.222Z,2.80
2018-09-26T21:55:29.656Z,2.97
2018-09-26T21:58:01.955Z,3.10
2018-09-26T22:00:34.247Z,2.87
2018-09-26T22:03:06.264Z,3.20
2018-09-26T22:05:38.716Z,2.93
2018-09-26T22:08:11.071Z,2.50
2018-09-26T22:10:43.713Z,2.37
2018-09-26T22:13:15.982Z,2.93
2018-09-26T22:15:48.553Z,2.10
2018-09-26T22:18:20.697Z,2.20
2018-09-26T22:20:52.821Z,2.43
2018-09-26T22:23:25.147Z,2.20
2018-09-26T22:25:57.614Z,2.33
2018-09-26T22:28:29.891Z,2.60
2018-09-26T22:31:02.247Z,2.70
2018-09-26T22:33:34.525Z,2.67
2018-09-26T22:36:06.741Z,2.23
2018-09-26T22:38:39.170Z,2.13
2018-09-26T22:41:11.749Z,2.40
2018-09-26T22:43:44.012Z,2.67
2018-09-26T22:46:16.028Z,2.40
2018-09-26T22:48:48.005Z,2.30
2018-09-26T22:51:20.469Z,1.93
2018-09-26T22:53:52.835Z,2.30
2018-09-26T22:56:25.078Z,2.50
2018-09-26T22:58:57.240Z,2.30
2018-09-26T23:01:29.616Z,2.40
2018-09-26T23:04:01.779Z,2.83
2018-09-26T23:06:34.415Z,2.77
2018-09-26T23:09:09.220Z,2.10
2018-09-26T23:11:43.358Z,2.23
2018-09-26T23:14:15.807Z,2.30
2018-09-26T23:16:48.281Z,2.47
2018-09-26T23:19:20.513Z,2.53
2018-09-26T23:21:52.723Z,2.40
2018-09-26T23:24:25.259Z,2.30
2018-09-26T23:26:58.051Z,2.40
2018-09-26T23:29:30.431Z,2.27
2018-09-26T23:32:02.745Z,2.13
2018-09-26T23:34:35.132Z,1.93
2018-09-26T23:37:07.334Z,2.40
2018-09-26T23:39:39.420Z,2.33
2018-09-26T23:42:11.481Z,2.00
2018-09-26T23:44:43.594Z,2.10
2018-09-26T23:47:16.088Z,2.20
2018-09-26T23:49:48.254Z,2.50
2018-09-26T23:52:20.646Z,2.67
2018-09-26T23:54:52.717Z,3.10
2018-09-26T23:57:25.492Z,2.80
2018-09-26T23:59:57.765Z,2.47
